createdAt,value
2022-10-11T00:02:12.717Z,7.93
2022-10-11T00:04:39.716Z,7.63
2022-10-11T00:07:06.712Z,7.40
2022-10-11T00:09:33.639Z,7.88
2022-10-11T00:12:00.578Z,8.40
2022-10-11T00:14:27.956Z,8.77
2022-10-11T00:16:55.241Z,8.98
2022-10-11T00:19:22.499Z,8.82
2022-10-11T00:21:49.463Z,9.38
2022-10-11T00:24:16.971Z,8.52
2022-10-11T00:26:47.012Z,9.45
2022-10-11T00:29:14.564Z,8.83
2022-10-11T00:31:41.499Z,8.90
2022-10-11T00:34:10.254Z,10.23
2022-10-11T00:36:37.242Z,9.45
2022-10-11T00:39:04.743Z,9.98
2022-10-11T00:41:31.821Z,10.07
2022-10-11T00:44:28.541Z,9.35
2022-10-11T00:47:01.372Z,9.10
2022-10-11T00:49:36.056Z,9.30
2022-10-11T00:52:20.771Z,9.68
2022-10-11T00:54:48.727Z,9.57
2022-10-11T00:57:22.631Z,8.93
2022-10-11T00:59:54.065Z,9.52
2022-10-11T01:02:23.294Z,11.27
2022-10-11T01:05:01.175Z,10.70
2022-10-11T01:07:39.306Z,11.30
2022-10-11T01:10:06.521Z,10.85
2022-10-11T01:12:34.054Z,10.45
2022-10-11T01:15:36.343Z,10.98
2022-10-11T01:18:14.683Z,11.38
2022-10-11T01:21:17.423Z,11.45
2022-10-11T01:24:30.393Z,10.32
2022-10-11T01:27:34.676Z,10.65
2022-10-11T01:30:25.265Z,11.35
2022-10-11T01:33:28.868Z,11.05
2022-10-11T01:36:27.982Z,10.90
2022-10-11T01:39:04.607Z,9.88
2022-10-11T01:41:39.677Z,10.57
2022-10-11T01:44:09.146Z,10.40
2022-10-11T01:46:37.172Z,10.35
2022-10-11T01:49:05.608Z,10.15
2022-10-11T01:51:45.209Z,11.18
2022-10-11T01:55:14.335Z,10.02
2022-10-11T01:58:13.327Z,11.10
2022-10-11T02:01:21.015Z,10.95
2022-10-11T02:03:58.246Z,10.65
2022-10-11T02:06:40.286Z,11.43
2022-10-11T02:09:34.222Z,11.77
2022-10-11T02:12:07.449Z,12.18
2022-10-11T02:14:44.690Z,11.43
2022-10-11T02:17:18.847Z,12.43
2022-10-11T02:19:49.591Z,11.40
2022-10-11T02:22:26.668Z,12.20
2022-10-11T02:24:57.491Z,10.90
2022-10-11T02:27:28.149Z,12.13
2022-10-11T02:29:59.790Z,12.95
2022-10-11T02:32:30.366Z,12.65
2022-10-11T02:35:00.493Z,14.07
2022-10-11T02:37:44.999Z,11.73
2022-10-11T02:40:41.432Z,11.40
2022-10-11T02:43:17.724Z,12.18
2022-10-11T02:45:53.731Z,13.30
2022-10-11T02:48:21.184Z,12.63
2022-10-11T02:50:48.287Z,13.25
2022-10-11T02:53:15.254Z,14.10
2022-10-11T02:55:42.190Z,14.55
2022-10-11T02:58:09.171Z,14.70
2022-10-11T03:00:36.077Z,13.55
2022-10-11T03:03:03.066Z,14.02
2022-10-11T03:05:30.038Z,14.63
2022-10-11T03:07:56.941Z,13.38
2022-10-11T03:10:23.865Z,14.95
2022-10-11T03:12:50.784Z,14.50
2022-10-11T03:15:17.783Z,13.95
2022-10-11T03:17:51.260Z,15.07
2022-10-11T03:20:18.230Z,13.55
2022-10-11T03:22:45.331Z,14.32
2022-10-11T03:25:12.347Z,14.15
2022-10-11T03:27:39.348Z,14.13
2022-10-11T03:30:09.020Z,15.48
2022-10-11T03:32:36.043Z,15.25
2022-10-11T03:35:03.551Z,14.50
2022-10-11T03:37:30.504Z,12.95
2022-10-11T03:39:57.554Z,15.32
2022-10-11T03:42:24.454Z,15.30
2022-10-11T03:44:52.124Z,15.27
2022-10-11T03:47:19.126Z,15.70
2022-10-11T03:49:46.061Z,16.15
2022-10-11T03:52:13.055Z,16.73
2022-10-11T03:54:39.953Z,14.90
2022-10-11T03:57:06.916Z,15.82
2022-10-11T03:59:33.854Z,16.20
2022-10-11T04:02:00.880Z,15.57
2022-10-11T04:04:27.945Z,15.20
2022-10-11T04:06:54.958Z,15.18
2022-10-11T04:09:21.891Z,14.02
2022-10-11T04:11:48.790Z,15.77
2022-10-11T04:14:15.762Z,14.30
2022-10-11T04:16:42.776Z,13.90
2022-10-11T04:19:09.625Z,16.13
2022-10-11T04:21:36.607Z,15.88
2022-10-11T04:24:03.759Z,17.13
2022-10-11T04:26:30.866Z,15.32
2022-10-11T04:28:58.112Z,15.93
2022-10-11T04:31:25.271Z,13.85
2022-10-11T04:33:52.173Z,16.00
2022-10-11T04:36:19.141Z,16.02
2022-10-11T04:38:46.082Z,17.73
2022-10-11T04:41:14.603Z,15.98
2022-10-11T04:43:41.573Z,19.98
2022-10-11T04:46:09.777Z,15.40
2022-10-11T04:48:37.323Z,17.33
2022-10-11T04:51:04.532Z,16.08
2022-10-11T04:53:31.673Z,18.45
2022-10-11T04:56:01.516Z,15.77
2022-10-11T04:58:29.999Z,13.30
2022-10-11T05:00:57.088Z,15.07
2022-10-11T05:03:25.045Z,18.33
2022-10-11T05:05:53.013Z,17.75
2022-10-11T05:08:23.438Z,15.95
2022-10-11T05:11:02.047Z,19.85
2022-10-11T05:13:29.856Z,15.35
2022-10-11T05:15:57.907Z,15.20
2022-10-11T05:18:24.850Z,14.35
2022-10-11T05:21:28.200Z,15.93
2022-10-11T05:23:56.684Z,16.77
2022-10-11T05:26:25.830Z,15.32
2022-10-11T05:28:53.011Z,16.52
2022-10-11T05:31:20.392Z,16.85
2022-10-11T05:33:47.606Z,14.90
2022-10-11T05:36:14.841Z,17.05
2022-10-11T05:38:41.994Z,14.88
2022-10-11T05:41:09.440Z,14.32
2022-10-11T05:43:36.688Z,15.73
2022-10-11T05:46:04.037Z,16.08
2022-10-11T05:48:31.206Z,15.77
2022-10-11T05:51:07.020Z,15.95
2022-10-11T05:53:34.111Z,16.25
2022-10-11T05:56:01.155Z,16.80
2022-10-11T05:58:28.515Z,16.38
2022-10-11T06:00:57.137Z,17.02
2022-10-11T06:03:24.272Z,17.45
2022-10-11T06:05:56.541Z,17.02
2022-10-11T06:08:24.063Z,17.30
2022-10-11T06:10:51.120Z,17.42
2022-10-11T06:13:18.618Z,16.08
2022-10-11T06:15:45.642Z,15.85
2022-10-11T06:18:12.584Z,16.08
2022-10-11T06:20:39.616Z,16.67
2022-10-11T06:23:06.573Z,16.80
2022-10-11T06:25:33.604Z,16.73
2022-10-11T06:28:00.832Z,16.77
2022-10-11T06:30:27.858Z,14.77
2022-10-11T06:32:54.915Z,14.77
2022-10-11T06:35:21.865Z,17.45
2022-10-11T06:37:48.823Z,15.88
2022-10-11T06:40:16.033Z,16.20
2022-10-11T06:42:42.945Z,14.38
2022-10-11T06:45:10.507Z,14.55
2022-10-11T06:47:37.468Z,14.25
2022-10-11T06:50:06.455Z,14.93
2022-10-11T06:52:33.417Z,14.80
2022-10-11T06:55:00.406Z,15.75
2022-10-11T06:57:29.385Z,15.40
2022-10-11T06:59:56.636Z,16.17
2022-10-11T07:02:23.688Z,16.17
2022-10-11T07:04:50.766Z,16.23
2022-10-11T07:07:17.911Z,18.40
2022-10-11T07:09:44.866Z,14.95
2022-10-11T07:12:12.041Z,15.07
2022-10-11T07:14:39.046Z,14.73
2022-10-11T07:17:06.102Z,15.07
2022-10-11T07:19:33.783Z,16.02
2022-10-11T07:22:00.823Z,15.27
2022-10-11T07:24:28.155Z,15.13
2022-10-11T07:26:55.034Z,14.88
2022-10-11T07:29:22.238Z,17.33
2022-10-11T07:31:49.320Z,14.70
2022-10-11T07:34:16.350Z,15.25
2022-10-11T07:36:43.271Z,13.23
2022-10-11T07:39:10.609Z,13.80
2022-10-11T07:41:44.583Z,13.40
2022-10-11T07:44:12.875Z,15.63
2022-10-11T07:46:39.939Z,12.07
2022-10-11T07:49:06.968Z,13.63
2022-10-11T07:51:34.005Z,13.38
2022-10-11T07:54:06.141Z,12.20
2022-10-11T07:56:34.309Z,13.60
2022-10-11T07:59:03.789Z,14.13
2022-10-11T08:01:31.332Z,11.75
2022-10-11T08:03:59.321Z,12.95
2022-10-11T08:06:30.692Z,13.23
2022-10-11T08:08:58.834Z,13.05
2022-10-11T08:11:31.282Z,14.13
2022-10-11T08:13:59.321Z,12.68
2022-10-11T08:16:26.394Z,13.55
2022-10-11T08:18:55.566Z,12.55
2022-10-11T08:21:22.490Z,13.05
2022-10-11T08:23:49.463Z,13.32
2022-10-11T08:26:16.487Z,13.25
2022-10-11T08:28:43.577Z,13.65
2022-10-11T08:31:13.761Z,11.65
2022-10-11T08:33:41.105Z,14.02
2022-10-11T08:36:09.816Z,14.23
2022-10-11T08:38:37.401Z,13.35
2022-10-11T08:41:23.773Z,13.82
2022-10-11T08:44:27.965Z,11.93
2022-10-11T08:47:04.557Z,11.40
2022-10-11T08:49:33.655Z,16.40
2022-10-11T08:52:04.812Z,13.90
2022-10-11T08:55:27.065Z,13.45
2022-10-11T08:57:56.465Z,14.35
2022-10-11T09:00:24.778Z,14.05
2022-10-11T09:03:40.640Z,12.20
2022-10-11T09:07:01.350Z,12.75
2022-10-11T09:09:53.069Z,14.48
2022-10-11T09:13:03.054Z,14.43
2022-10-11T09:15:47.092Z,12.57
2022-10-11T09:18:31.996Z,12.27
2022-10-11T09:21:43.671Z,14.30
2022-10-11T09:24:53.633Z,11.85
2022-10-11T09:27:33.179Z,12.90
2022-10-11T09:30:16.048Z,12.00
2022-10-11T09:32:47.420Z,13.20
2022-10-11T09:35:20.053Z,11.93
2022-10-11T09:38:19.115Z,12.93
2022-10-11T09:41:06.091Z,12.63
2022-10-11T09:43:33.148Z,12.18
2022-10-11T09:46:00.103Z,13.23
2022-10-11T09:48:40.631Z,12.65
2022-10-11T09:51:15.888Z,13.70
2022-10-11T09:54:10.972Z,11.30
2022-10-11T09:56:46.155Z,12.07
2022-10-11T09:59:33.784Z,14.43
2022-10-11T10:02:20.859Z,14.65
2022-10-11T10:05:15.968Z,10.23
2022-10-11T10:08:05.203Z,12.07
2022-10-11T10:10:43.797Z,11.57
2022-10-11T10:13:27.001Z,11.65
2022-10-11T10:15:58.049Z,13.10
2022-10-11T10:18:34.594Z,13.00
2022-10-11T10:21:02.871Z,11.30
2022-10-11T10:23:35.577Z,14.00
2022-10-11T10:26:23.478Z,11.85
2022-10-11T10:29:05.104Z,11.88
2022-10-11T10:32:13.038Z,11.23
2022-10-11T10:34:40.105Z,11.18
2022-10-11T10:37:30.277Z,12.30
2022-10-11T10:40:03.866Z,11.32
2022-10-11T10:42:31.049Z,11.40
2022-10-11T10:44:59.184Z,12.05
2022-10-11T10:48:07.337Z,11.63
2022-10-11T10:50:56.516Z,12.52
2022-10-11T10:53:49.635Z,11.18
2022-10-11T10:56:28.086Z,12.88
2022-10-11T10:59:13.592Z,11.52
2022-10-11T11:02:21.431Z,10.13
2022-10-11T11:05:30.242Z,10.40
2022-10-11T11:08:16.010Z,12.80
2022-10-11T11:10:58.558Z,10.40
2022-10-11T11:13:50.674Z,11.85
2022-10-11T11:16:35.361Z,11.40
2022-10-11T11:19:59.717Z,14.13
2022-10-11T11:22:39.891Z,10.68
2022-10-11T11:25:50.623Z,10.55
2022-10-11T11:28:57.217Z,10.35
2022-10-11T11:31:49.414Z,10.73
2022-10-11T11:34:30.389Z,11.20
2022-10-11T11:37:28.620Z,11.10
2022-10-11T11:43:21.546Z,9.45
2022-10-11T11:45:59.521Z,11.52
2022-10-11T11:48:27.311Z,10.57
2022-10-11T11:51:03.953Z,11.40
2022-10-11T11:54:24.938Z,12.82
2022-10-11T11:57:19.848Z,9.70
2022-10-11T12:00:06.652Z,11.57
2022-10-11T12:03:10.078Z,11.68
2022-10-11T12:05:37.411Z,11.68
2022-10-11T12:08:08.521Z,12.40
2022-10-11T12:11:00.380Z,12.23
2022-10-11T12:13:49.057Z,10.80
2022-10-11T12:16:21.330Z,10.93
2022-10-11T12:19:20.363Z,11.93
2022-10-11T12:21:48.187Z,10.82
2022-10-11T12:24:24.806Z,10.93
2022-10-11T12:27:30.322Z,11.45
2022-10-11T12:29:59.814Z,11.20
2022-10-11T12:33:09.683Z,11.90
2022-10-11T12:35:48.203Z,11.32
2022-10-11T12:38:28.990Z,11.00
2022-10-11T12:41:30.283Z,11.80
2022-10-11T12:44:26.475Z,12.23
2022-10-11T12:47:22.939Z,10.18
2022-10-11T12:50:01.584Z,12.07
2022-10-11T12:52:55.792Z,12.18
2022-10-11T12:55:37.138Z,10.40
2022-10-11T12:58:46.403Z,10.52
2022-10-11T13:01:26.564Z,10.68
2022-10-11T13:04:25.569Z,11.02
2022-10-11T13:07:06.544Z,13.18
2022-10-11T13:09:48.103Z,11.75
2022-10-11T13:12:28.332Z,11.48
2022-10-11T13:15:11.269Z,12.20
2022-10-11T13:17:58.242Z,11.55
2022-10-11T13:20:28.645Z,10.35
2022-10-11T13:22:57.253Z,12.23
2022-10-11T13:25:30.779Z,11.60
2022-10-11T13:28:01.938Z,12.48
2022-10-11T13:30:38.655Z,11.07
2022-10-11T13:33:11.535Z,11.55
2022-10-11T13:35:42.160Z,12.50
2022-10-11T13:38:18.699Z,11.43
2022-10-11T13:40:53.117Z,11.00
2022-10-11T13:43:27.169Z,11.43
2022-10-11T13:45:55.943Z,12.75
2022-10-11T13:48:24.479Z,10.70
2022-10-11T13:51:14.087Z,11.43
2022-10-11T13:53:58.712Z,10.38
2022-10-11T13:56:36.786Z,10.90
2022-10-11T13:59:05.331Z,33.15
2022-10-11T14:01:40.716Z,18.48
2022-10-11T14:04:12.109Z,11.65
2022-10-11T14:06:48.691Z,10.30
2022-10-11T14:09:33.451Z,12.30
2022-10-11T14:12:37.493Z,11.70
2022-10-11T14:15:07.801Z,11.57
2022-10-11T14:17:45.650Z,11.50
2022-10-11T14:20:34.288Z,10.30
2022-10-11T14:23:01.248Z,11.77
2022-10-11T14:25:28.504Z,11.50
2022-10-11T14:27:55.670Z,10.57
2022-10-11T14:30:26.471Z,11.20
2022-10-11T14:32:56.678Z,10.13
2022-10-11T14:35:32.028Z,11.38
2022-10-11T14:37:59.428Z,10.52
2022-10-11T14:40:29.321Z,10.07
2022-10-11T14:42:57.050Z,11.43
2022-10-11T14:45:24.418Z,9.80
2022-10-11T14:47:51.987Z,10.98
2022-10-11T14:50:42.915Z,11.73
2022-10-11T14:53:11.711Z,11.27
2022-10-11T14:55:40.761Z,11.32
2022-10-11T14:58:09.081Z,12.35
2022-10-11T15:00:36.907Z,13.82
2022-10-11T15:03:05.340Z,12.95
2022-10-11T15:05:34.126Z,14.15
2022-10-11T15:08:03.070Z,13.18
2022-10-11T15:10:41.212Z,12.70
2022-10-11T15:13:08.934Z,12.75
2022-10-11T15:15:37.711Z,12.68
2022-10-11T15:18:06.773Z,12.50
2022-10-11T15:20:40.307Z,13.90
2022-10-11T15:23:09.916Z,18.08
2022-10-11T15:25:39.265Z,15.32
2022-10-11T15:28:07.359Z,14.43
2022-10-11T15:30:41.062Z,15.73
2022-10-11T15:33:09.205Z,12.50
2022-10-11T15:35:36.215Z,13.48
2022-10-11T15:38:03.407Z,11.68
2022-10-11T15:40:39.133Z,25.02
2022-10-11T15:43:06.125Z,12.35
2022-10-11T15:45:33.364Z,11.13
2022-10-11T15:48:00.375Z,11.13
2022-10-11T15:50:36.997Z,11.00
2022-10-11T15:53:25.892Z,11.95
2022-10-11T15:55:54.859Z,10.43
2022-10-11T15:58:24.694Z,11.30
2022-10-11T16:00:54.324Z,12.25
2022-10-11T16:03:24.198Z,12.85
2022-10-11T16:05:52.005Z,11.07
2022-10-11T16:08:19.250Z,12.02
2022-10-11T16:10:46.589Z,10.82
2022-10-11T16:13:13.531Z,11.32
2022-10-11T16:15:42.312Z,11.00
2022-10-11T16:18:12.469Z,12.02
2022-10-11T16:20:44.547Z,10.00
2022-10-11T16:23:12.380Z,11.25
2022-10-11T16:25:39.575Z,9.98
2022-10-11T16:28:08.167Z,10.88
2022-10-11T16:30:39.100Z,10.38
2022-10-11T16:33:06.373Z,10.93
2022-10-11T16:35:33.370Z,9.23
2022-10-11T16:38:01.239Z,9.75
2022-10-11T16:40:30.064Z,10.63
2022-10-11T16:42:57.012Z,9.18
2022-10-11T16:45:24.257Z,9.52
2022-10-11T16:47:51.233Z,8.50
2022-10-11T16:50:18.384Z,8.85
2022-10-11T16:52:45.308Z,9.85
2022-10-11T16:55:12.256Z,9.32
2022-10-11T16:57:39.342Z,9.68
2022-10-11T17:00:08.909Z,9.98
2022-10-11T17:02:36.297Z,9.18
2022-10-11T17:05:03.713Z,9.95
2022-10-11T17:07:31.155Z,10.50
2022-10-11T17:09:58.408Z,9.05
2022-10-11T17:12:25.458Z,9.32
2022-10-11T17:14:52.553Z,10.95
2022-10-11T17:17:19.631Z,9.65
2022-10-11T17:19:47.775Z,11.00
2022-10-11T17:22:17.958Z,10.45
2022-10-11T17:24:46.101Z,9.63
2022-10-11T17:27:13.137Z,9.32
2022-10-11T17:29:40.335Z,9.13
2022-10-11T17:32:07.344Z,8.70
2022-10-11T17:34:34.608Z,10.75
2022-10-11T17:37:01.646Z,8.73
2022-10-11T17:39:28.836Z,10.70
2022-10-11T17:41:55.739Z,10.07
2022-10-11T17:44:22.648Z,10.73
2022-10-11T17:46:50.365Z,10.32
2022-10-11T17:49:17.556Z,11.32
2022-10-11T17:51:44.612Z,12.32
2022-10-11T17:54:13.197Z,10.98
2022-10-11T17:56:41.413Z,11.75
2022-10-11T17:59:15.985Z,11.77
2022-10-11T18:01:43.205Z,11.25
2022-10-11T18:04:16.933Z,10.90
2022-10-11T18:06:46.666Z,12.07
2022-10-11T18:09:16.477Z,13.25
2022-10-11T18:11:44.091Z,14.45
2022-10-11T18:14:11.046Z,14.80
2022-10-11T18:16:38.665Z,16.30
2022-10-11T18:19:08.396Z,15.25
2022-10-11T18:21:37.740Z,15.85
2022-10-11T18:24:08.287Z,18.23
2022-10-11T18:26:35.226Z,17.00
2022-10-11T18:29:02.190Z,16.02
2022-10-11T18:31:31.363Z,16.98
2022-10-11T18:33:58.325Z,15.88
2022-10-11T18:36:28.211Z,16.17
2022-10-11T18:38:59.165Z,14.52
2022-10-11T18:41:30.792Z,16.05
2022-10-11T18:44:03.278Z,14.65
2022-10-11T18:46:31.221Z,16.48
2022-10-11T18:49:01.419Z,16.70
2022-10-11T18:51:31.601Z,16.00
2022-10-11T18:53:59.059Z,18.87
2022-10-11T18:56:28.366Z,20.52
2022-10-11T18:58:57.384Z,17.08
2022-10-11T19:01:30.395Z,17.15
2022-10-11T19:03:59.478Z,15.95
2022-10-11T19:06:33.116Z,15.93
2022-10-11T19:09:03.820Z,15.98
2022-10-11T19:11:31.103Z,16.30
2022-10-11T19:14:00.411Z,16.90
2022-10-11T19:16:29.919Z,16.05
2022-10-11T19:18:57.409Z,16.58
2022-10-11T19:21:24.529Z,15.50
2022-10-11T19:23:52.036Z,15.43
2022-10-11T19:26:29.098Z,16.85
2022-10-11T19:29:01.006Z,16.20
2022-10-11T19:31:28.974Z,18.33
2022-10-11T19:33:57.969Z,17.58
2022-10-11T19:36:25.822Z,17.95
2022-10-11T19:38:56.863Z,19.88
2022-10-11T19:43:52.555Z,18.52
2022-10-11T19:46:44.414Z,19.60
2022-10-11T19:49:09.494Z,20.25
2022-10-11T19:51:37.556Z,21.10
2022-10-11T19:54:07.238Z,20.45
2022-10-11T19:56:34.525Z,19.95
2022-10-11T19:59:02.430Z,20.65
2022-10-11T20:01:31.407Z,22.55
2022-10-11T20:04:00.725Z,21.92
2022-10-11T20:06:28.700Z,21.98
2022-10-11T20:09:23.986Z,20.90
2022-10-11T20:11:43.305Z,21.15
2022-10-11T20:14:10.257Z,19.42
2022-10-11T20:16:37.232Z,16.73
2022-10-11T20:19:04.245Z,16.38
2022-10-11T20:21:31.274Z,14.95
2022-10-11T20:24:00.806Z,15.57
2022-10-11T20:26:28.995Z,12.07
2022-10-11T20:28:57.497Z,12.35
2022-10-11T20:31:34.399Z,12.65
2022-10-11T20:34:05.030Z,13.57
2022-10-11T20:36:32.570Z,13.02
2022-10-11T20:39:00.335Z,11.82
2022-10-11T20:41:39.986Z,12.65
2022-10-11T20:44:07.576Z,14.57
2022-10-11T20:46:37.314Z,14.90
2022-10-11T20:49:07.068Z,14.60
2022-10-11T20:51:37.623Z,15.85
2022-10-11T20:54:04.912Z,17.02
2022-10-11T20:56:32.606Z,16.73
2022-10-11T20:58:59.880Z,15.40
2022-10-11T21:01:30.247Z,17.45
2022-10-11T21:03:58.880Z,15.38
2022-10-11T21:06:26.695Z,14.85
2022-10-11T21:08:56.025Z,14.40
2022-10-11T21:11:30.688Z,16.48
2022-10-11T21:13:59.748Z,16.48
2022-10-11T21:16:27.773Z,15.40
2022-10-11T21:18:56.718Z,12.85
2022-10-11T21:21:24.282Z,14.18
2022-10-11T21:23:55.905Z,13.35
2022-10-11T21:26:23.059Z,12.90
2022-10-11T21:28:50.873Z,13.40
2022-10-11T21:31:19.887Z,13.48
2022-10-11T21:33:47.149Z,13.07
2022-10-11T21:36:20.019Z,12.70
2022-10-11T21:38:48.172Z,12.98
2022-10-11T21:41:18.266Z,13.68
2022-10-11T21:43:45.889Z,16.23
2022-10-11T21:46:16.096Z,16.73
2022-10-11T21:48:43.369Z,17.70
2022-10-11T21:51:21.563Z,18.17
2022-10-11T21:53:48.591Z,16.88
2022-10-11T21:56:16.086Z,17.42
2022-10-11T21:58:43.571Z,16.05
2022-10-11T22:01:11.722Z,19.00
2022-10-11T22:03:38.719Z,16.10
2022-10-11T22:06:05.962Z,18.13
2022-10-11T22:08:33.235Z,19.08
2022-10-11T22:11:01.334Z,17.83
2022-10-11T22:13:30.440Z,17.27
2022-10-11T22:15:57.507Z,17.05
2022-10-11T22:18:25.001Z,18.15
2022-10-11T22:20:52.021Z,17.25
2022-10-11T22:23:19.414Z,17.42
2022-10-11T22:25:46.707Z,18.77
2022-10-11T22:28:13.704Z,18.00
2022-10-11T22:30:40.686Z,19.88
2022-10-11T22:33:07.667Z,19.50
2022-10-11T22:35:38.156Z,20.10
2022-10-11T22:38:06.431Z,17.45
2022-10-11T22:40:33.418Z,17.60
2022-10-11T22:43:00.318Z,17.55
2022-10-11T22:45:27.274Z,17.55
2022-10-11T22:47:58.107Z,18.60
2022-10-11T22:52:53.182Z,18.73
2022-10-11T22:55:20.415Z,18.42
2022-10-11T22:57:47.405Z,19.05
2022-10-11T23:00:14.979Z,18.63
2022-10-11T23:02:41.882Z,18.73
2022-10-11T23:05:09.067Z,18.08
2022-10-11T23:07:36.431Z,19.45
2022-10-11T23:10:04.150Z,17.15
2022-10-11T23:12:31.150Z,16.13
2022-10-11T23:14:58.098Z,15.48
2022-10-11T23:17:25.058Z,16.83
2022-10-11T23:19:52.845Z,15.95
2022-10-11T23:22:19.747Z,14.30
2022-10-11T23:24:46.877Z,15.95
2022-10-11T23:27:13.796Z,15.82
2022-10-11T23:29:41.311Z,15.10
2022-10-11T23:32:09.669Z,14.90
2022-10-11T23:34:36.709Z,15.68
2022-10-11T23:37:04.580Z,15.80
2022-10-11T23:39:31.810Z,16.02
2022-10-11T23:41:58.841Z,16.65
2022-10-11T23:44:25.719Z,18.55
2022-10-11T23:46:52.658Z,17.00
2022-10-11T23:49:19.633Z,18.20
2022-10-11T23:51:46.607Z,17.65
2022-10-11T23:54:13.646Z,18.17
2022-10-11T23:56:40.541Z,18.75
2022-10-11T23:59:07.484Z,17.08
